createdAt,value
2018-11-11T00:02:05.592Z,78.33
2018-11-11T00:04:35.296Z,89.60
2018-11-11T00:07:05.991Z,61.70
2018-11-11T00:09:35.676Z,67.67
2018-11-11T00:12:05.546Z,68.37
2018-11-11T00:14:35.235Z,65.33
2018-11-11T00:17:05.141Z,66.03
2018-11-11T00:19:34.847Z,67.43
2018-11-11T00:22:05.374Z,68.63
2018-11-11T00:24:35.076Z,69.77
2018-11-11T00:27:05.382Z,62.23
2018-11-11T00:29:35.133Z,71.77
2018-11-11T00:32:05.400Z,76.77
2018-11-11T00:34:36.131Z,60.20
2018-11-11T00:37:05.905Z,61.20
2018-11-11T00:39:36.707Z,59.07
2018-11-11T00:42:06.777Z,63.67
2018-11-11T00:44:37.504Z,62.50
2018-11-11T00:47:08.212Z,161.20
2018-11-11T00:49:37.917Z,68.20
2018-11-11T00:52:07.999Z,60.03
2018-11-11T00:54:37.984Z,57.40
2018-11-11T00:57:09.439Z,68.60
2018-11-11T00:59:40.168Z,55.80
2018-11-11T01:02:09.924Z,61.03
2018-11-11T01:04:39.655Z,64.50
2018-11-11T01:07:09.333Z,54.43
2018-11-11T01:09:39.013Z,57.27
2018-11-11T01:12:08.757Z,82.13
2018-11-11T01:14:38.452Z,72.17
2018-11-11T01:17:09.760Z,72.50
2018-11-11T01:19:39.446Z,60.97
2018-11-11T01:22:10.187Z,73.43
2018-11-11T01:24:39.891Z,54.30
2018-11-11T01:27:09.596Z,64.47
2018-11-11T01:29:40.337Z,55.80
2018-11-11T01:32:10.038Z,62.85
2018-11-11T01:34:40.775Z,56.37
2018-11-11T01:37:10.467Z,52.00
2018-11-11T01:39:40.511Z,54.37
2018-11-11T01:42:10.161Z,54.37
2018-11-11T01:44:39.807Z,48.10
2018-11-11T01:47:10.486Z,48.03
2018-11-11T01:49:41.172Z,43.80
2018-11-11T01:52:10.793Z,48.47
2018-11-11T01:54:40.473Z,41.90
2018-11-11T01:57:10.107Z,48.47
2018-11-11T01:59:39.764Z,48.60
2018-11-11T02:02:09.428Z,51.07
2018-11-11T02:04:39.052Z,54.20
2018-11-11T02:07:08.700Z,52.13
2018-11-11T02:09:38.316Z,51.40
2018-11-11T02:12:08.013Z,43.70
2018-11-11T02:14:37.669Z,49.50
2018-11-11T02:17:07.324Z,49.07
2018-11-11T02:19:37.041Z,54.93
2018-11-11T02:22:06.740Z,46.33
2018-11-11T02:24:37.428Z,49.33
2018-11-11T02:27:07.503Z,48.13
2018-11-11T02:29:37.183Z,46.17
2018-11-11T02:32:06.871Z,46.60
2018-11-11T02:34:36.544Z,38.50
2018-11-11T02:37:06.593Z,40.83
2018-11-11T02:39:37.308Z,48.77
2018-11-11T02:42:06.936Z,48.03
2018-11-11T02:44:36.541Z,49.50
2018-11-11T02:47:06.443Z,54.23
2018-11-11T02:49:36.042Z,40.93
2018-11-11T02:52:05.762Z,74.83
2018-11-11T02:54:36.387Z,50.77
2018-11-11T02:57:06.094Z,48.83
2018-11-11T02:59:35.743Z,77.13
2018-11-11T03:02:06.231Z,57.50
2018-11-11T03:04:36.034Z,49.87
2018-11-11T03:07:05.719Z,45.67
2018-11-11T03:09:35.360Z,53.17
2018-11-11T03:12:05.474Z,66.67
2018-11-11T03:14:35.159Z,63.30
2018-11-11T03:17:05.229Z,46.10
2018-11-11T03:19:35.268Z,41.70
2018-11-11T03:22:06.170Z,39.53
2018-11-11T03:24:35.831Z,47.20
2018-11-11T03:27:06.514Z,44.30
2018-11-11T03:29:36.151Z,41.57
2018-11-11T03:32:06.281Z,45.13
2018-11-11T03:34:35.935Z,46.93
2018-11-11T03:37:07.561Z,49.53
2018-11-11T03:39:37.256Z,50.90
2018-11-11T03:42:08.473Z,41.37
2018-11-11T03:44:39.163Z,37.53
2018-11-11T03:47:08.755Z,37.20
2018-11-11T03:49:38.389Z,40.63
2018-11-11T03:52:08.755Z,37.97
2018-11-11T03:54:39.467Z,40.17
2018-11-11T03:57:09.055Z,34.43
2018-11-11T03:59:38.697Z,34.20
2018-11-11T04:02:08.310Z,37.40
2018-11-11T04:04:37.976Z,34.53
2018-11-11T04:07:08.079Z,32.73
2018-11-11T04:09:37.708Z,39.53
2018-11-11T04:12:08.464Z,33.93
2018-11-11T04:14:38.120Z,35.83
2018-11-11T04:17:07.799Z,34.40
2018-11-11T04:19:37.405Z,37.90
2018-11-11T04:22:14.795Z,34.70
2018-11-11T04:24:44.502Z,35.43
2018-11-11T04:27:14.126Z,37.37
2018-11-11T04:29:43.766Z,36.10
2018-11-11T04:32:13.380Z,37.53
2018-11-11T04:34:43.699Z,35.77
2018-11-11T04:37:13.306Z,34.97
2018-11-11T04:39:43.017Z,36.47
2018-11-11T04:42:12.633Z,36.80
2018-11-11T04:44:42.280Z,38.23
2018-11-11T04:47:11.948Z,36.77
2018-11-11T04:49:41.592Z,39.40
2018-11-11T04:52:11.196Z,37.97
2018-11-11T04:54:40.819Z,38.53
2018-11-11T04:57:10.432Z,38.77
2018-11-11T04:59:40.036Z,40.90
2018-11-11T05:02:09.843Z,39.23
2018-11-11T05:04:39.471Z,39.37
2018-11-11T05:07:09.826Z,42.00
2018-11-11T05:09:39.475Z,40.80
2018-11-11T05:12:09.088Z,40.13
2018-11-11T05:14:38.696Z,42.87
2018-11-11T05:17:08.348Z,41.30
2018-11-11T05:19:37.963Z,45.03
2018-11-11T05:22:07.879Z,46.93
2018-11-11T05:24:38.519Z,43.23
2018-11-11T05:27:08.299Z,41.77
2018-11-11T05:29:38.934Z,41.47
2018-11-11T05:32:08.548Z,43.37
2018-11-11T05:34:39.081Z,44.17
2018-11-11T05:37:08.694Z,40.80
2018-11-11T05:39:38.298Z,39.90
2018-11-11T05:42:08.938Z,40.77
2018-11-11T05:44:38.579Z,42.13
2018-11-11T05:47:09.221Z,43.87
2018-11-11T05:52:15.335Z,44.67
2018-11-11T05:54:44.950Z,43.87
2018-11-11T05:57:15.612Z,41.17
2018-11-11T05:59:46.151Z,43.60
2018-11-11T06:02:16.811Z,42.27
2018-11-11T06:04:46.438Z,38.90
2018-11-11T06:07:16.111Z,40.30
2018-11-11T06:09:45.712Z,39.10
2018-11-11T06:12:15.326Z,39.13
2018-11-11T06:14:44.929Z,39.10
2018-11-11T06:17:14.605Z,40.40
2018-11-11T06:19:44.218Z,49.23
2018-11-11T06:22:14.887Z,41.33
2018-11-11T06:24:45.577Z,42.30
2018-11-11T06:27:15.233Z,43.37
2018-11-11T06:29:44.857Z,41.83
2018-11-11T06:32:14.478Z,40.47
2018-11-11T06:34:44.096Z,41.17
2018-11-11T06:37:13.696Z,41.00
2018-11-11T06:39:43.376Z,40.83
2018-11-11T06:42:13.099Z,43.00
2018-11-11T06:44:43.749Z,42.43
2018-11-11T06:47:14.467Z,41.93
2018-11-11T06:49:44.144Z,43.43
2018-11-11T06:52:13.798Z,43.20
2018-11-11T06:57:17.621Z,45.27
2018-11-11T06:59:49.115Z,46.17
2018-11-11T07:02:22.116Z,43.90
2018-11-11T07:04:51.748Z,43.13
2018-11-11T07:07:21.487Z,42.13
2018-11-11T07:09:51.113Z,42.77
2018-11-11T07:12:20.731Z,43.57
2018-11-11T07:14:50.339Z,44.90
2018-11-11T07:17:20.987Z,41.17
2018-11-11T07:19:50.600Z,44.80
2018-11-11T07:22:20.437Z,46.77
2018-11-11T07:24:50.172Z,45.10
2018-11-11T07:27:19.819Z,48.47
2018-11-11T07:29:49.434Z,46.80
2018-11-11T07:32:19.047Z,73.37
2018-11-11T07:34:48.714Z,79.30
2018-11-11T07:37:18.437Z,53.80
2018-11-11T07:39:48.072Z,53.97
2018-11-11T07:42:17.729Z,48.97
2018-11-11T07:44:48.451Z,47.80
2018-11-11T07:47:18.199Z,71.33
2018-11-11T07:49:48.384Z,80.60
2018-11-11T07:52:18.004Z,50.70
2018-11-11T07:54:47.705Z,51.97
2018-11-11T07:57:18.408Z,50.80
2018-11-11T07:59:48.044Z,56.13
2018-11-11T08:02:17.751Z,117.13
2018-11-11T08:04:47.364Z,93.20
2018-11-11T08:07:17.006Z,154.97
2018-11-11T08:09:46.631Z,145.33
2018-11-11T08:12:16.313Z,222.83
2018-11-11T08:14:45.983Z,65.40
2018-11-11T08:17:15.661Z,64.20
2018-11-11T08:19:45.272Z,71.73
2018-11-11T08:22:15.939Z,83.63
2018-11-11T08:24:45.560Z,74.90
2018-11-11T08:27:15.282Z,66.73
2018-11-11T08:29:44.896Z,70.07
2018-11-11T08:32:14.515Z,66.03
2018-11-11T08:34:44.177Z,60.77
2018-11-11T08:37:13.806Z,58.27
2018-11-11T08:39:43.423Z,58.43
2018-11-11T08:42:13.756Z,66.53
2018-11-11T08:44:44.364Z,66.03
2018-11-11T08:47:14.046Z,77.13
2018-11-11T08:49:43.659Z,64.87
2018-11-11T08:52:13.308Z,62.27
2018-11-11T08:54:42.924Z,64.90
2018-11-11T08:57:12.552Z,63.77
2018-11-11T08:59:42.213Z,70.30
2018-11-11T09:02:12.910Z,82.13
2018-11-11T09:04:43.602Z,63.10
2018-11-11T09:07:13.303Z,58.87
2018-11-11T09:09:42.925Z,57.47
2018-11-11T09:12:12.554Z,83.40
2018-11-11T09:14:43.204Z,64.40
2018-11-11T09:17:13.620Z,76.50
2018-11-11T09:19:43.207Z,105.00
2018-11-11T09:22:12.835Z,61.53
2018-11-11T09:24:42.449Z,71.77
2018-11-11T09:27:12.100Z,52.73
2018-11-11T09:29:41.743Z,58.53
2018-11-11T09:32:11.353Z,53.87
2018-11-11T09:34:40.967Z,59.83
2018-11-11T09:37:10.715Z,54.93
2018-11-11T09:39:40.388Z,63.20
2018-11-11T09:42:10.009Z,58.43
2018-11-11T09:44:39.649Z,57.07
2018-11-11T09:47:09.266Z,53.20
2018-11-11T09:49:38.902Z,68.53
2018-11-11T09:52:08.523Z,100.60
2018-11-11T09:54:38.157Z,89.57
2018-11-11T09:57:08.041Z,90.57
2018-11-11T09:59:37.682Z,103.37
2018-11-11T10:02:07.438Z,119.80
2018-11-11T10:04:48.123Z,80.27
2018-11-11T10:07:38.177Z,95.77
2018-11-11T10:10:15.503Z,93.03
2018-11-11T10:12:53.726Z,103.60
2018-11-11T10:15:43.206Z,95.17
2018-11-11T10:18:21.707Z,114.97
2018-11-11T10:23:00.466Z,65.77
2018-11-11T10:25:35.194Z,75.73
2018-11-11T10:28:12.976Z,111.07
2018-11-11T10:30:49.019Z,75.33
2018-11-11T10:35:34.487Z,82.83
2018-11-11T10:38:09.556Z,59.80
2018-11-11T10:40:45.413Z,67.77
2018-11-11T10:43:26.128Z,62.23
2018-11-11T10:46:04.869Z,54.57
2018-11-11T10:48:37.693Z,63.87
2018-11-11T10:51:07.807Z,56.53
2018-11-11T10:53:37.456Z,68.40
2018-11-11T10:56:07.120Z,63.37
2018-11-11T10:58:36.767Z,56.90
2018-11-11T11:02:11.955Z,75.87
2018-11-11T11:04:46.842Z,68.23
2018-11-11T11:07:16.544Z,71.33
2018-11-11T11:09:46.144Z,59.60
2018-11-11T11:12:15.785Z,77.17
2018-11-11T11:14:45.408Z,64.67
2018-11-11T11:17:16.092Z,71.37
2018-11-11T11:19:45.710Z,86.43
2018-11-11T11:22:16.408Z,67.73
2018-11-11T11:24:47.032Z,63.90
2018-11-11T11:27:16.689Z,54.53
2018-11-11T11:29:46.359Z,61.63
2018-11-11T11:32:17.191Z,58.10
2018-11-11T11:34:46.756Z,58.67
2018-11-11T11:37:16.765Z,72.13
2018-11-11T11:39:47.413Z,72.93
2018-11-11T11:42:17.046Z,84.73
2018-11-11T11:44:46.665Z,73.83
2018-11-11T11:47:16.369Z,80.43
2018-11-11T11:49:46.021Z,81.93
2018-11-11T11:52:15.643Z,64.77
2018-11-11T11:54:45.300Z,72.30
2018-11-11T11:57:14.907Z,67.70
2018-11-11T11:59:45.465Z,65.67
2018-11-11T12:02:16.408Z,72.47
2018-11-11T12:04:45.971Z,67.73
2018-11-11T12:07:15.651Z,62.83
2018-11-11T12:09:45.250Z,66.00
2018-11-11T12:12:14.906Z,69.50
2018-11-11T12:14:44.523Z,76.47
2018-11-11T12:17:14.205Z,117.87
2018-11-11T12:19:43.804Z,91.50
2018-11-11T12:22:13.405Z,75.00
2018-11-11T12:24:43.048Z,75.77
2018-11-11T12:27:12.685Z,71.70
2018-11-11T12:29:42.320Z,69.63
2018-11-11T12:32:11.949Z,74.30
2018-11-11T12:34:41.598Z,75.47
2018-11-11T12:37:11.265Z,68.77
2018-11-11T12:39:41.048Z,66.83
2018-11-11T12:42:10.622Z,62.90
2018-11-11T12:44:40.272Z,95.37
2018-11-11T12:47:11.012Z,70.97
2018-11-11T12:49:40.611Z,63.63
2018-11-11T12:52:10.262Z,71.90
2018-11-11T12:54:39.899Z,86.20
2018-11-11T12:57:10.088Z,73.23
2018-11-11T12:59:39.696Z,63.00
2018-11-11T13:02:09.324Z,61.43
2018-11-11T13:04:38.972Z,76.70
2018-11-11T13:07:08.627Z,83.37
2018-11-11T13:09:38.251Z,57.37
2018-11-11T13:12:07.942Z,55.63
2018-11-11T13:14:37.543Z,53.77
2018-11-11T13:17:09.320Z,55.57
2018-11-11T13:19:39.321Z,90.57
2018-11-11T13:22:09.057Z,90.77
2018-11-11T13:24:38.691Z,112.67
2018-11-11T13:27:08.674Z,85.47
2018-11-11T13:29:38.371Z,71.23
2018-11-11T13:32:08.119Z,258.67
2018-11-11T13:34:37.704Z,210.67
2018-11-11T13:37:08.361Z,164.80
2018-11-11T13:39:38.037Z,64.77
2018-11-11T13:42:07.702Z,58.17
2018-11-11T13:44:37.370Z,58.20
2018-11-11T13:47:07.014Z,60.93
2018-11-11T13:49:36.623Z,79.20
2018-11-11T13:52:06.680Z,66.93
2018-11-11T13:54:36.292Z,61.83
2018-11-11T13:57:07.158Z,155.33
2018-11-11T13:59:36.827Z,65.50
2018-11-11T14:02:06.739Z,66.70
2018-11-11T14:04:36.580Z,63.20
2018-11-11T14:07:06.307Z,58.10
2018-11-11T14:09:35.942Z,60.50
2018-11-11T14:12:05.740Z,60.30
2018-11-11T14:14:35.343Z,64.90
2018-11-11T14:17:06.204Z,61.20
2018-11-11T14:19:35.916Z,60.63
2018-11-11T14:22:05.819Z,78.53
2018-11-11T14:24:35.493Z,66.63
2018-11-11T14:27:05.691Z,64.33
2018-11-11T14:29:35.447Z,65.10
2018-11-11T14:32:05.735Z,65.50
2018-11-11T14:34:35.437Z,74.83
2018-11-11T14:37:05.495Z,67.53
2018-11-11T14:39:35.114Z,61.13
2018-11-11T14:42:06.473Z,62.47
2018-11-11T14:44:36.114Z,82.83
2018-11-11T14:47:05.974Z,85.70
2018-11-11T14:49:35.592Z,78.67
2018-11-11T14:52:05.772Z,65.77
2018-11-11T14:54:35.384Z,61.50
2018-11-11T14:57:05.225Z,58.47
2018-11-11T14:59:35.879Z,59.93
2018-11-11T15:02:06.133Z,59.50
2018-11-11T15:04:35.787Z,58.97
2018-11-11T15:07:05.509Z,56.97
2018-11-11T15:09:35.147Z,59.70
2018-11-11T15:12:05.869Z,74.47
2018-11-11T15:14:35.525Z,83.07
2018-11-11T15:17:05.436Z,138.60
2018-11-11T15:19:35.242Z,124.27
2018-11-11T15:22:05.688Z,94.40
2018-11-11T15:24:35.316Z,96.33
2018-11-11T15:27:07.867Z,82.93
2018-11-11T15:29:37.543Z,73.87
2018-11-11T15:32:07.172Z,79.13
2018-11-11T15:34:36.828Z,58.17
2018-11-11T15:37:08.532Z,64.83
2018-11-11T15:39:38.178Z,59.93
2018-11-11T15:42:07.807Z,63.17
2018-11-11T15:44:37.445Z,61.43
2018-11-11T15:47:07.119Z,65.30
2018-11-11T15:49:36.715Z,64.07
2018-11-11T15:52:06.468Z,63.10
2018-11-11T15:54:37.395Z,65.53
2018-11-11T15:57:08.080Z,66.93
2018-11-11T15:59:38.683Z,68.13
2018-11-11T16:02:08.322Z,65.50
2018-11-11T16:04:37.943Z,62.70
2018-11-11T16:07:07.851Z,72.47
2018-11-11T16:09:37.450Z,66.43
2018-11-11T16:12:07.119Z,67.80
2018-11-11T16:14:37.712Z,67.00
2018-11-11T16:17:07.349Z,68.10
2018-11-11T16:19:37.006Z,64.73
2018-11-11T16:22:07.748Z,63.37
2018-11-11T16:24:38.389Z,67.83
2018-11-11T16:27:08.086Z,64.77
2018-11-11T16:29:37.708Z,63.57
2018-11-11T16:32:07.523Z,64.47
2018-11-11T16:34:38.147Z,62.67
2018-11-11T16:37:07.843Z,66.23
2018-11-11T16:39:37.594Z,61.43
2018-11-11T16:42:07.275Z,68.60
2018-11-11T16:44:36.929Z,64.03
2018-11-11T16:47:07.659Z,67.07
2018-11-11T16:49:38.306Z,66.80
2018-11-11T16:52:07.632Z,60.83
2018-11-11T16:54:38.262Z,62.23
2018-11-11T16:57:07.886Z,66.17
2018-11-11T16:59:37.479Z,63.33
2018-11-11T17:02:07.411Z,61.80
2018-11-11T17:04:37.116Z,61.67
2018-11-11T17:07:06.832Z,63.13
2018-11-11T17:09:36.469Z,67.00
2018-11-11T17:12:06.679Z,65.10
2018-11-11T17:14:36.594Z,67.50
2018-11-11T17:17:06.685Z,73.83
2018-11-11T17:19:36.291Z,65.17
2018-11-11T17:22:06.392Z,67.50
2018-11-11T17:24:35.892Z,71.90
2018-11-11T17:27:05.718Z,71.50
2018-11-11T17:29:35.395Z,63.37
2018-11-11T17:32:05.800Z,68.33
2018-11-11T17:34:36.440Z,66.80
2018-11-11T17:37:06.496Z,66.20
2018-11-11T17:39:36.111Z,66.47
2018-11-11T17:42:06.884Z,69.20
2018-11-11T17:44:36.496Z,64.30
2018-11-11T17:47:06.388Z,67.33
2018-11-11T17:49:36.043Z,68.73
2018-11-11T17:52:06.339Z,68.90
2018-11-11T17:54:35.969Z,63.17
2018-11-11T17:57:05.735Z,73.87
2018-11-11T17:59:35.343Z,69.00
2018-11-11T18:02:06.539Z,65.37
2018-11-11T18:04:36.132Z,66.57
2018-11-11T18:07:05.830Z,70.83
2018-11-11T18:09:35.440Z,70.17
2018-11-11T18:12:05.595Z,70.20
2018-11-11T18:14:36.228Z,68.10
2018-11-11T18:17:06.575Z,62.97
2018-11-11T18:19:36.144Z,70.47
2018-11-11T18:22:05.826Z,66.17
2018-11-11T18:24:35.478Z,67.17
2018-11-11T18:27:06.266Z,69.20
2018-11-11T18:29:35.866Z,69.07
2018-11-11T18:32:08.473Z,69.63
2018-11-11T18:34:38.299Z,68.83
2018-11-11T18:37:09.461Z,75.53
2018-11-11T18:39:39.106Z,74.90
2018-11-11T18:42:08.764Z,77.23
2018-11-11T18:44:39.386Z,73.13
2018-11-11T18:47:09.765Z,72.07
2018-11-11T18:49:39.383Z,89.20
2018-11-11T18:52:09.036Z,84.73
2018-11-11T18:54:38.670Z,86.97
2018-11-11T18:57:08.385Z,72.70
2018-11-11T18:59:39.006Z,75.27
2018-11-11T19:02:08.688Z,79.30
2018-11-11T19:04:38.320Z,74.63
2018-11-11T19:07:09.024Z,75.03
2018-11-11T19:09:40.382Z,72.43
2018-11-11T19:12:10.103Z,72.87
2018-11-11T19:14:41.235Z,73.30
2018-11-11T19:17:10.952Z,75.83
2018-11-11T19:19:40.559Z,120.13
2018-11-11T19:22:10.183Z,76.62
2018-11-11T19:24:39.944Z,71.67
2018-11-11T19:27:09.481Z,70.23
2018-11-11T19:29:40.114Z,70.20
2018-11-11T19:32:10.861Z,76.23
2018-11-11T19:34:40.503Z,70.73
2018-11-11T19:37:10.191Z,79.10
2018-11-11T19:39:39.816Z,69.67
2018-11-11T19:42:09.521Z,71.93
2018-11-11T19:44:39.131Z,71.43
2018-11-11T19:47:08.812Z,72.07
2018-11-11T19:49:38.464Z,77.53
2018-11-11T19:52:08.428Z,81.43
2018-11-11T19:54:38.088Z,75.73
2018-11-11T19:57:07.750Z,74.10
2018-11-11T19:59:37.352Z,75.73
2018-11-11T20:02:07.688Z,72.80
2018-11-11T20:04:37.332Z,77.77
2018-11-11T20:07:07.316Z,107.93
2018-11-11T20:09:36.960Z,73.97
2018-11-11T20:12:07.585Z,80.33
2018-11-11T20:14:37.206Z,73.27
2018-11-11T20:17:06.910Z,75.50
2018-11-11T20:19:36.570Z,79.30
2018-11-11T20:22:07.284Z,81.67
2018-11-11T20:24:36.954Z,80.47
2018-11-11T20:27:06.618Z,70.17
2018-11-11T20:29:37.260Z,77.70
2018-11-11T20:32:07.931Z,71.33
2018-11-11T20:34:38.555Z,96.63
2018-11-11T20:37:08.189Z,97.67
2018-11-11T20:39:37.805Z,88.90
2018-11-11T20:42:07.436Z,72.50
2018-11-11T20:44:37.064Z,114.93
2018-11-11T20:47:06.758Z,76.90
2018-11-11T20:49:36.389Z,86.13
2018-11-11T20:52:06.400Z,84.00
2018-11-11T20:54:36.045Z,94.97
2018-11-11T20:57:05.791Z,168.73
2018-11-11T20:59:35.428Z,95.93
2018-11-11T21:02:05.836Z,83.25
2018-11-11T21:04:35.845Z,133.10
2018-11-11T21:07:06.253Z,132.50
2018-11-11T21:09:36.072Z,116.47
2018-11-11T21:12:07.439Z,80.45
2018-11-11T21:14:39.225Z,77.40
2018-11-11T21:17:08.934Z,165.20
2018-11-11T21:19:38.611Z,100.67
2018-11-11T21:22:15.008Z,100.43
2018-11-11T21:24:45.082Z,89.23
2018-11-11T21:27:14.917Z,86.40
2018-11-11T21:29:46.423Z,99.07
2018-11-11T21:32:16.111Z,77.25
2018-11-11T21:34:46.276Z,79.87
2018-11-11T21:37:16.913Z,94.73
2018-11-11T21:39:46.559Z,74.70
2018-11-11T21:42:16.648Z,81.78
2018-11-11T21:44:47.668Z,73.43
2018-11-11T21:47:17.652Z,67.80
2018-11-11T21:49:48.704Z,122.07
2018-11-11T21:52:18.370Z,117.77
2018-11-11T21:54:48.048Z,79.37
2018-11-11T21:57:17.744Z,102.00
2018-11-11T21:59:47.412Z,110.33
2018-11-11T22:02:18.064Z,108.50
2018-11-11T22:04:48.687Z,97.70
2018-11-11T22:07:18.332Z,97.23
2018-11-11T22:09:48.023Z,70.40
2018-11-11T22:12:17.703Z,73.02
2018-11-11T22:14:47.318Z,81.40
2018-11-11T22:17:16.923Z,107.00
2018-11-11T22:19:46.599Z,89.47
2018-11-11T22:22:16.319Z,72.30
2018-11-11T22:24:45.942Z,88.83
2018-11-11T22:27:15.535Z,86.90
2018-11-11T22:29:45.144Z,94.80
2018-11-11T22:32:14.813Z,110.27
2018-11-11T22:34:44.444Z,70.53
2018-11-11T22:37:14.112Z,132.40
2018-11-11T22:39:43.735Z,76.83
2018-11-11T22:42:14.367Z,71.73
2018-11-11T22:44:43.988Z,79.27
2018-11-11T22:47:13.728Z,71.13
2018-11-11T22:49:43.435Z,106.57
2018-11-11T22:52:14.086Z,75.50
2018-11-11T22:54:43.764Z,72.53
2018-11-11T22:57:13.407Z,77.83
2018-11-11T22:59:43.004Z,74.63
2018-11-11T23:02:12.615Z,77.03
2018-11-11T23:04:42.265Z,78.97
2018-11-11T23:07:11.935Z,72.13
2018-11-11T23:09:41.536Z,76.77
2018-11-11T23:12:11.141Z,75.60
2018-11-11T23:14:40.772Z,72.70
2018-11-11T23:17:10.431Z,71.23
2018-11-11T23:19:41.024Z,69.07
2018-11-11T23:22:10.666Z,76.43
2018-11-11T23:24:40.315Z,69.73
2018-11-11T23:27:09.919Z,62.27
2018-11-11T23:29:39.580Z,84.27
2018-11-11T23:32:09.344Z,76.97
2018-11-11T23:34:38.941Z,61.17
2018-11-11T23:37:08.683Z,59.63
2018-11-11T23:39:39.282Z,72.13
2018-11-11T23:42:08.915Z,67.17
2018-11-11T23:44:39.520Z,64.73
2018-11-11T23:47:09.153Z,58.30
2018-11-11T23:49:38.768Z,59.30
2018-11-11T23:52:08.500Z,60.27
2018-11-11T23:54:38.103Z,75.33
2018-11-11T23:57:07.704Z,67.80
2018-11-11T23:59:37.309Z,70.67
